Time;durP1;ratioP1;P1;durP2;ratioP2;P2;SDS_P1;SDS_P2;PMS_P1;PMS_P2;Temp;Humidity;BMP_temperature;BMP_pressure;BME280_temperature;BME280_humidity;BME280_pressure;Samples;Min_cycle;Max_cycle;Signal;HPM_P1;HPM_P2
2023/01/05 00:01:08;;;;;;;72.88;37.33;;;5.20;84.80;;;;;;5092209;28;20391;-15
2023/01/05 00:03:35;;;;;;;51.08;29.05;;;5.20;84.90;;;;;;5092971;28;20502;-13
2023/01/05 00:06:05;;;;;;;59.75;29.75;;;5.20;85.00;;;;;;5092630;28;20016;-13
2023/01/05 00:08:31;;;;;;;88.45;41.03;;;5.10;85.00;;;;;;5092705;28;20021;-14
2023/01/05 00:24:41;;;;;;;86.07;36.63;;;4.90;85.20;;;;;;5092706;28;20034;-14
2023/01/05 00:27:06;;;;;;;69.13;33.50;;;4.90;85.10;;;;;;5091955;28;20024;-14
2023/01/05 00:29:32;;;;;;;75.80;34.17;;;4.90;85.10;;;;;;5092138;28;20031;-15
2023/01/05 00:31:58;;;;;;;51.65;27.95;;;4.80;85.10;;;;;;5092197;28;20059;-15
2023/01/05 00:34:24;;;;;;;36.45;22.67;;;4.80;85.10;;;;;;5092160;28;20036;-14
2023/01/05 00:36:49;;;;;;;57.65;30.10;;;4.80;85.20;;;;;;5092225;28;20035;-14
2023/01/05 00:39:15;;;;;;;56.30;28.55;;;4.80;85.30;;;;;;5092446;28;20165;-13
2023/01/05 00:41:41;;;;;;;47.78;28.10;;;4.80;85.30;;;;;;5092486;28;20031;-13
2023/01/05 00:44:07;;;;;;;43.33;26.30;;;4.80;85.30;;;;;;5092291;28;20031;-14
2023/01/05 00:46:33;;;;;;;53.78;30.55;;;4.80;85.30;;;;;;5094794;28;20028;-12
2023/01/05 00:48:58;;;;;;;61.97;30.63;;;4.70;85.30;;;;;;5095752;28;20016;-13
2023/01/05 00:51:24;;;;;;;32.92;20.05;;;4.70;85.30;;;;;;5094428;28;20032;-13
2023/01/05 00:53:50;;;;;;;49.10;25.25;;;4.70;85.30;;;;;;5095711;28;20111;-12
2023/01/05 00:56:16;;;;;;;37.38;24.65;;;4.60;85.30;;;;;;5096015;28;20024;-13
2023/01/05 00:58:41;;;;;;;58.05;29.65;;;4.70;85.30;;;;;;5095553;28;20463;-13
2023/01/05 01:01:11;;;;;;;51.63;27.98;;;4.70;85.20;;;;;;5095444;28;20020;-14
2023/01/05 01:03:37;;;;;;;60.90;32.70;;;4.70;85.10;;;;;;5095647;28;20028;-13
2023/01/05 01:06:03;;;;;;;58.90;30.88;;;4.70;84.90;;;;;;5095799;28;20050;-14
2023/01/05 01:08:29;;;;;;;59.97;31.80;;;4.60;84.90;;;;;;5094131;28;20138;-13
2023/01/05 01:10:55;;;;;;;41.20;25.33;;;4.50;84.90;;;;;;5095594;28;20535;-14
2023/01/05 01:13:23;;;;;;;45.20;26.25;;;4.50;84.90;;;;;;5095388;28;20071;-13
2023/01/05 01:15:49;;;;;;;44.53;25.23;;;4.40;84.90;;;;;;5095436;28;20028;-13
2023/01/05 01:18:15;;;;;;;46.22;26.90;;;4.40;84.90;;;;;;5095812;28;20035;-13
2023/01/05 01:20:41;;;;;;;47.30;26.58;;;4.40;85.00;;;;;;5095681;28;20089;-13
2023/01/05 01:23:07;;;;;;;41.63;24.33;;;4.40;85.10;;;;;;5093619;28;20024;-13
2023/01/05 01:25:33;;;;;;;66.70;33.63;;;4.50;85.10;;;;;;5095402;28;20112;-14
2023/01/05 01:28:00;;;;;;;85.13;37.65;;;4.40;85.20;;;;;;5095133;28;20459;-13
2023/01/05 01:30:26;;;;;;;75.40;39.25;;;4.50;85.20;;;;;;5094722;28;20133;-13
2023/01/05 01:32:52;;;;;;;69.55;36.38;;;4.50;85.10;;;;;;5094732;28;20074;-13
2023/01/05 01:35:17;;;;;;;65.53;34.17;;;4.50;85.20;;;;;;5095402;28;20032;-12
2023/01/05 01:37:43;;;;;;;75.00;39.60;;;4.40;85.30;;;;;;5095402;28;20108;-13
2023/01/05 01:40:09;;;;;;;77.95;39.95;;;4.50;85.30;;;;;;5094903;28;20677;-13
2023/01/05 01:42:35;;;;;;;76.95;39.17;;;4.50;85.10;;;;;;5095112;28;20053;-12
2023/01/05 01:45:13;;;;;;;51.22;30.35;;;4.50;85.80;;;;;;5094776;28;20024;-13
2023/01/05 01:47:50;;;;;;;41.80;26.75;;;4.50;85.60;;;;;;5094120;28;20027;-13
2023/01/05 01:50:31;;;;;;;54.63;31.45;;;4.50;85.60;;;;;;5094967;28;20028;-13
2023/01/05 01:53:02;;;;;;;62.17;35.83;;;4.60;85.70;;;;;;5094488;28;20141;-12
2023/01/05 01:55:29;;;;;;;65.43;37.03;;;4.60;85.60;;;;;;5094528;28;20028;-13
2023/01/05 01:57:57;;;;;;;66.07;36.20;;;4.70;85.50;;;;;;5093992;28;20048;-13
2023/01/05 02:00:23;;;;;;;63.88;36.55;;;4.70;85.40;;;;;;5094341;28;20119;-14
2023/01/05 02:02:52;;;;;;;61.97;35.05;;;4.80;85.40;;;;;;5094196;28;20044;-13
2023/01/05 02:05:22;;;;;;;48.80;29.63;;;4.80;85.40;;;;;;5093465;28;20032;-13
2023/01/05 02:07:48;;;;;;;42.13;26.33;;;4.80;85.40;;;;;;5094414;28;20028;-13
2023/01/05 02:10:17;;;;;;;56.92;33.35;;;4.90;85.20;;;;;;5094195;28;20077;-13
2023/01/05 02:13:29;;;;;;;66.53;37.17;;;4.90;85.30;;;;;;5094503;28;20054;-13
2023/01/05 02:16:02;;;;;;;55.85;31.83;;;4.90;85.20;;;;;;5031953;28;20485;-13
2023/01/05 02:19:18;;;;;;;62.75;35.30;;;4.90;85.20;;;;;;5031900;28;20041;-13
2023/01/05 02:22:07;;;;;;;46.05;29.42;;;4.90;85.20;;;;;;5004979;28;20037;-13
2023/01/05 02:24:59;;;;;;;59.28;34.33;;;4.90;85.20;;;;;;5012234;28;20041;-13
2023/01/05 02:27:49;;;;;;;55.45;33.80;;;4.90;85.20;;;;;;5012212;28;20030;-15
2023/01/05 02:30:27;;;;;;;56.30;34.28;;;4.90;85.20;;;;;;5011576;28;20057;-15
2023/01/05 02:33:16;;;;;;;52.20;30.75;;;4.90;85.20;;;;;;5011604;28;20030;-13
2023/01/05 02:36:16;;;;;;;56.30;34.85;;;4.90;85.20;;;;;;5012385;28;20038;-12
2023/01/05 02:38:47;;;;;;;50.65;30.83;;;4.90;85.20;;;;;;5011772;28;20034;-13
2023/01/05 02:41:23;;;;;;;60.35;34.25;;;4.80;85.20;;;;;;5011976;28;20034;-14
2023/01/05 02:43:49;;;;;;;43.42;28.05;;;4.80;85.20;;;;;;5011564;28;20426;-14
2023/01/05 02:46:15;;;;;;;39.25;26.05;;;4.80;85.30;;;;;;5011944;28;20037;-12
2023/01/05 02:48:42;;;;;;;45.95;29.67;;;4.80;85.30;;;;;;5011600;28;20417;-13
2023/01/05 02:51:15;;;;;;;40.53;26.85;;;4.90;85.40;;;;;;5011391;28;20576;-13
2023/01/05 02:53:46;;;;;;;49.38;30.30;;;4.90;85.30;;;;;;5012217;28;20029;-13
2023/01/05 02:56:19;;;;;;;42.28;28.15;;;5.00;85.30;;;;;;5024603;28;20063;-13
2023/01/05 02:58:51;;;;;;;45.58;29.63;;;5.10;85.20;;;;;;5093663;28;20078;-13
2023/01/05 03:01:50;;;;;;;49.63;30.98;;;5.10;85.30;;;;;;5092189;28;20039;-13
2023/01/05 03:04:46;;;;;;;41.67;27.77;;;5.20;85.10;;;;;;5092495;28;20024;-13
2023/01/05 03:07:17;;;;;;;45.25;27.38;;;5.30;84.90;;;;;;5014498;28;20489;-13
2023/01/05 03:09:45;;;;;;;45.03;29.08;;;5.40;84.80;;;;;;5013612;28;20026;-13
2023/01/05 03:15:34;;;;;;;54.13;33.20;;;5.50;84.60;;;;;;5030887;28;20135;-13
2023/01/05 03:18:06;;;;;;;50.92;32.28;;;5.50;84.80;;;;;;5030423;28;20048;-13
2023/01/05 03:20:34;;;;;;;58.08;34.65;;;5.60;85.00;;;;;;5031056;28;20052;-15
2023/01/05 03:38:06;;;;;;;82.28;38.92;;;5.70;84.80;;;;;;5030816;28;20052;-12
2023/01/05 03:40:34;;;;;;;80.13;37.47;;;5.70;84.90;;;;;;5030568;28;20484;-13
2023/01/05 03:43:02;;;;;;;92.78;40.53;;;5.70;85.10;;;;;;5037324;28;20155;-13
2023/01/05 03:45:39;;;;;;;59.60;30.27;;;5.70;85.20;;;;;;5092762;28;20503;-13
2023/01/05 03:48:05;;;;;;;49.72;28.75;;;5.70;85.10;;;;;;5092712;28;20020;-15
2023/01/05 03:50:31;;;;;;;94.93;41.67;;;5.70;85.30;;;;;;5092546;28;20032;-13
2023/01/05 03:52:57;;;;;;;52.80;30.05;;;5.70;85.90;;;;;;5092507;28;20032;-13
2023/01/05 03:55:23;;;;;;;78.30;33.53;;;5.70;85.80;;;;;;5092577;28;20176;-14
2023/01/05 03:57:48;;;;;;;76.78;37.60;;;5.70;85.80;;;;;;5092897;28;20027;-13
2023/01/05 04:00:15;;;;;;;80.28;36.13;;;5.80;85.80;;;;;;5092620;28;20545;-14
2023/01/05 04:02:40;;;;;;;84.60;38.30;;;5.70;85.90;;;;;;5092407;28;20081;-12
2023/01/05 04:05:06;;;;;;;83.35;39.05;;;5.70;85.80;;;;;;5092646;28;20028;-14
2023/01/05 04:07:32;;;;;;;82.95;38.17;;;5.70;85.50;;;;;;5092701;28;20074;-14
2023/01/05 04:10:00;;;;;;;77.82;37.00;;;5.60;85.50;;;;;;5092387;28;20032;-13
2023/01/05 04:12:26;;;;;;;82.63;36.90;;;5.60;85.50;;;;;;5092551;28;20020;-14
2023/01/05 04:14:51;;;;;;;76.32;36.88;;;5.50;85.50;;;;;;5092117;28;20046;-14
2023/01/05 04:17:17;;;;;;;75.60;37.78;;;5.40;85.60;;;;;;5092267;28;20081;-14
2023/01/05 04:19:43;;;;;;;46.03;27.13;;;5.50;85.70;;;;;;5092311;28;20058;-14
2023/01/05 04:22:09;;;;;;;50.95;29.30;;;5.40;85.70;;;;;;5096077;28;20306;-14
2023/01/05 04:24:35;;;;;;;50.10;28.75;;;5.40;85.70;;;;;;5096329;28;20032;-14
2023/01/05 04:27:00;;;;;;;48.45;28.75;;;5.60;85.80;;;;;;5096092;28;20032;-14
2023/01/05 04:29:26;;;;;;;64.82;32.97;;;5.60;85.80;;;;;;5094834;28;20016;-14
2023/01/05 04:31:52;;;;;;;70.10;34.10;;;5.60;85.90;;;;;;5096349;28;20199;-15
2023/01/05 04:34:19;;;;;;;53.28;30.10;;;5.60;86.10;;;;;;5096388;28;20028;-14
2023/01/05 04:36:46;;;;;;;45.58;26.95;;;5.70;86.00;;;;;;5096044;28;20483;-14
2023/01/05 04:39:13;;;;;;;50.28;26.83;;;5.70;85.90;;;;;;5096043;28;20034;-14
2023/01/05 04:41:38;;;;;;;50.45;27.95;;;5.80;85.80;;;;;;5096012;28;20475;-14
2023/01/05 04:44:04;;;;;;;51.92;29.52;;;5.80;85.90;;;;;;5095891;28;20024;-14
2023/01/05 04:46:30;;;;;;;46.60;26.27;;;5.80;86.00;;;;;;5096146;28;20028;-13
2023/01/05 04:48:57;;;;;;;60.22;29.00;;;5.90;85.90;;;;;;5095736;28;20046;-14
2023/01/05 04:51:23;;;;;;;55.03;29.08;;;5.90;86.00;;;;;;5095786;28;20425;-14
2023/01/05 04:53:49;;;;;;;62.13;30.65;;;5.90;86.00;;;;;;5095783;28;20024;-15
2023/01/05 04:56:15;;;;;;;46.03;25.80;;;5.90;85.90;;;;;;5095899;28;20134;-14
2023/01/05 04:58:42;;;;;;;47.35;23.85;;;5.90;85.90;;;;;;5095661;28;20031;-14
2023/01/05 05:01:08;;;;;;;48.08;23.67;;;5.90;85.80;;;;;;5095825;28;20047;-16
2023/01/05 05:03:34;;;;;;;54.22;28.85;;;6.00;85.70;;;;;;5095510;28;20077;-14
2023/01/05 05:06:00;;;;;;;41.47;22.70;;;6.00;85.70;;;;;;5094292;28;20020;-13
2023/01/05 05:08:26;;;;;;;41.30;23.65;;;6.10;85.60;;;;;;5095674;28;20027;-14
2023/01/05 05:10:52;;;;;;;46.10;26.23;;;6.10;85.60;;;;;;5095336;28;20107;-14
2023/01/05 05:13:18;;;;;;;46.10;27.33;;;6.10;85.60;;;;;;5095564;28;20112;-14
2023/01/05 05:15:44;;;;;;;44.83;27.02;;;6.10;85.60;;;;;;5095364;28;20487;-14
2023/01/05 05:18:10;;;;;;;48.17;27.00;;;6.10;85.60;;;;;;5095202;28;20399;-14
2023/01/05 05:20:39;;;;;;;43.53;24.45;;;6.10;85.60;;;;;;5095524;28;20028;-13
2023/01/05 05:23:05;;;;;;;43.33;26.05;;;6.00;85.50;;;;;;5095256;28;20118;-14
2023/01/05 05:25:31;;;;;;;44.97;23.85;;;6.00;85.60;;;;;;5095297;28;20510;-14
2023/01/05 05:27:57;;;;;;;55.28;28.58;;;6.00;85.60;;;;;;5095567;28;20028;-14
2023/01/05 05:30:23;;;;;;;62.30;30.58;;;6.00;85.50;;;;;;5093678;28;20048;-15
2023/01/05 05:32:49;;;;;;;52.58;26.05;;;5.90;85.50;;;;;;5093822;28;20396;-13
2023/01/05 05:35:15;;;;;;;57.60;28.60;;;5.90;85.50;;;;;;5094233;28;20055;-16
2023/01/05 05:37:44;;;;;;;40.72;23.63;;;5.90;85.60;;;;;;5094910;28;20028;-14
2023/01/05 05:40:11;;;;;;;31.80;20.38;;;5.90;85.50;;;;;;5095048;28;20042;-14
2023/01/05 05:42:37;;;;;;;32.28;21.55;;;5.90;85.60;;;;;;5095171;28;20034;-14
2023/01/05 05:45:03;;;;;;;46.47;25.70;;;5.80;85.60;;;;;;5094499;28;20040;-15
2023/01/05 05:47:29;;;;;;;33.42;20.63;;;5.80;85.70;;;;;;5094709;28;20036;-14
2023/01/05 05:49:55;;;;;;;39.03;24.42;;;5.80;85.60;;;;;;5095013;28;20024;-15
2023/01/05 05:52:21;;;;;;;50.38;26.52;;;5.80;85.60;;;;;;5094610;28;20440;-15
2023/01/05 05:54:47;;;;;;;48.88;28.33;;;5.80;85.70;;;;;;5094428;28;20074;-13
2023/01/05 05:57:13;;;;;;;55.03;30.00;;;5.80;85.60;;;;;;5094573;28;20055;-15
2023/01/05 05:59:39;;;;;;;57.13;30.30;;;5.70;85.60;;;;;;5094352;28;20429;-14
2023/01/05 06:02:05;;;;;;;54.10;29.80;;;5.70;85.60;;;;;;5094721;28;20016;-15
2023/01/05 06:04:31;;;;;;;60.80;33.85;;;5.70;85.50;;;;;;5093053;28;20028;-15
2023/01/05 06:06:57;;;;;;;52.33;30.95;;;5.60;85.50;;;;;;5094181;28;20020;-15
2023/01/05 06:09:23;;;;;;;57.50;32.00;;;5.60;85.60;;;;;;5094560;28;20028;-15
2023/01/05 06:11:49;;;;;;;57.75;30.40;;;5.60;85.70;;;;;;5094178;28;20379;-13
2023/01/05 06:14:15;;;;;;;77.00;35.15;;;5.60;85.70;;;;;;5094055;28;20138;-14
2023/01/05 06:16:41;;;;;;;67.00;33.50;;;5.50;85.70;;;;;;5094190;28;20119;-13
2023/01/05 06:19:08;;;;;;;62.58;32.63;;;5.50;85.80;;;;;;5093911;28;20030;-13
2023/01/05 06:21:35;;;;;;;74.35;32.88;;;5.50;85.80;;;;;;5094138;28;20028;-13
2023/01/05 06:24:00;;;;;;;63.95;31.33;;;5.50;85.90;;;;;;5094254;28;20026;-14
2023/01/05 06:26:26;;;;;;;79.13;35.83;;;5.50;85.90;;;;;;5093935;28;20107;-13
2023/01/05 06:28:52;;;;;;;78.80;33.53;;;5.50;85.90;;;;;;5093675;28;20078;-15
2023/01/05 06:31:18;;;;;;;66.30;32.95;;;5.50;86.00;;;;;;5093682;28;20056;-14
2023/01/05 06:33:44;;;;;;;80.63;34.22;;;5.50;85.90;;;;;;5094495;28;20032;-13
2023/01/05 06:36:10;;;;;;;53.15;29.45;;;5.50;86.00;;;;;;5094310;28;20032;-13
2023/01/05 06:38:36;;;;;;;69.10;35.40;;;5.50;86.00;;;;;;5093856;28;20472;-13
2023/01/05 06:41:02;;;;;;;49.33;28.20;;;5.50;86.10;;;;;;5093515;28;20093;-13
2023/01/05 06:43:29;;;;;;;66.88;33.40;;;5.50;86.10;;;;;;5093789;28;20031;-13
2023/01/05 06:45:55;;;;;;;63.65;32.28;;;5.60;86.20;;;;;;5093561;28;20503;-13
2023/01/05 06:48:21;;;;;;;69.32;33.70;;;5.60;86.20;;;;;;5094175;28;20028;-14
2023/01/05 06:50:47;;;;;;;38.63;24.02;;;5.60;86.20;;;;;;5093581;28;20085;-16
2023/01/05 06:53:13;;;;;;;48.50;26.50;;;5.60;86.20;;;;;;5093297;28;20060;-13
2023/01/05 06:55:39;;;;;;;43.47;24.92;;;5.60;86.20;;;;;;5093464;28;20492;-12
2023/01/05 06:58:05;;;;;;;68.70;32.15;;;5.70;86.20;;;;;;5093378;28;20063;-13
2023/01/05 07:00:31;;;;;;;57.15;27.92;;;5.70;86.30;;;;;;5093544;28;20035;-14
2023/01/05 07:02:57;;;;;;;64.32;31.85;;;5.80;86.20;;;;;;5093050;28;20487;-13
2023/01/05 07:05:23;;;;;;;43.55;26.20;;;5.80;86.10;;;;;;5093313;28;20020;-14
2023/01/05 07:07:49;;;;;;;56.13;28.38;;;5.70;86.10;;;;;;5093314;28;20426;-13
2023/01/05 07:10:16;;;;;;;44.70;25.67;;;5.80;86.20;;;;;;5091931;28;20024;-13
2023/01/05 07:12:42;;;;;;;55.05;29.60;;;5.80;86.20;;;;;;5093025;28;20024;-12
2023/01/05 07:15:09;;;;;;;55.58;29.63;;;5.90;86.10;;;;;;5092828;28;20027;-13
2023/01/05 07:17:35;;;;;;;51.70;28.85;;;5.80;86.00;;;;;;5093120;28;20060;-14
2023/01/05 07:20:02;;;;;;;52.83;29.13;;;5.80;86.00;;;;;;5093208;28;20054;-13
2023/01/05 07:22:29;;;;;;;63.13;33.50;;;5.80;86.10;;;;;;5092915;28;20099;-13
2023/01/05 07:24:59;;;;;;;58.58;30.70;;;5.80;86.10;;;;;;5092695;28;20032;-13
2023/01/05 07:27:25;;;;;;;58.53;32.58;;;5.80;86.10;;;;;;5093200;28;20048;-14
2023/01/05 07:29:51;;;;;;;80.43;38.85;;;5.80;86.10;;;;;;5092816;28;20194;-13
2023/01/05 07:32:18;;;;;;;49.65;28.13;;;5.70;86.20;;;;;;5093367;28;20491;-13
2023/01/05 07:34:44;;;;;;;64.78;34.58;;;5.70;86.20;;;;;;5092901;28;20445;-14
2023/01/05 07:37:10;;;;;;;65.68;33.88;;;5.80;86.30;;;;;;5092640;28;20028;-13
2023/01/05 07:39:36;;;;;;;67.53;35.10;;;5.80;86.40;;;;;;5092702;28;20016;-14
2023/01/05 07:42:01;;;;;;;58.67;33.42;;;5.80;86.50;;;;;;5093000;28;20145;-13
2023/01/05 07:44:28;;;;;;;64.18;35.58;;;5.80;86.40;;;;;;5092731;28;20032;-14
2023/01/05 07:46:54;;;;;;;73.22;41.80;;;5.90;86.30;;;;;;5092497;28;20039;-14
2023/01/05 07:49:20;;;;;;;51.22;28.50;;;5.90;86.30;;;;;;5092923;28;20048;-13
2023/01/05 07:51:46;;;;;;;48.47;28.80;;;5.90;86.30;;;;;;5092495;28;20105;-13
2023/01/05 07:54:12;;;;;;;58.15;31.02;;;5.90;86.40;;;;;;5092850;28;20024;-14
2023/01/05 07:56:37;;;;;;;55.92;31.90;;;6.00;86.40;;;;;;5092343;28;20363;-14
2023/01/05 07:59:03;;;;;;;58.00;31.20;;;6.00;86.40;;;;;;5092485;28;20566;-14
2023/01/05 08:01:29;;;;;;;39.10;24.75;;;6.10;86.50;;;;;;5092464;28;20410;-14
2023/01/05 08:03:55;;;;;;;47.90;27.77;;;6.10;86.50;;;;;;5092539;28;20023;-14
2023/01/05 08:06:21;;;;;;;58.03;35.28;;;6.20;86.60;;;;;;5093012;28;20028;-13
2023/01/05 08:08:47;;;;;;;41.22;26.17;;;6.30;86.70;;;;;;5092208;28;20039;-14
2023/01/05 08:11:15;;;;;;;39.65;25.27;;;6.40;86.70;;;;;;5092529;28;20036;-14
2023/01/05 08:14:03;;;;;;;58.08;33.08;;;6.40;86.60;;;;;;5092481;28;20060;-13
2023/01/05 08:16:32;;;;;;;46.75;28.35;;;6.50;86.60;;;;;;5092845;28;20028;-13
2023/01/05 08:18:58;;;;;;;52.70;30.55;;;6.60;86.50;;;;;;5092237;28;20050;-13
2023/01/05 08:21:24;;;;;;;39.10;25.20;;;6.60;86.50;;;;;;5092653;28;20028;-14
2023/01/05 08:23:52;;;;;;;41.00;25.70;;;6.70;86.40;;;;;;5092267;28;20114;-13
2023/01/05 08:26:20;;;;;;;36.28;23.77;;;6.70;86.40;;;;;;5092585;28;20036;-13
2023/01/05 08:28:47;;;;;;;48.35;29.35;;;6.80;86.30;;;;;;5092054;28;20036;-12
2023/01/05 08:31:22;;;;;;;45.42;28.38;;;6.80;86.40;;;;;;5092093;28;20456;-13
2023/01/05 08:33:49;;;;;;;43.38;27.73;;;6.90;86.50;;;;;;5092512;28;20051;-13
2023/01/05 08:36:18;;;;;;;48.85;28.95;;;6.90;86.50;;;;;;5090917;28;20119;-12
2023/01/05 08:38:47;;;;;;;40.72;25.30;;;7.10;86.50;;;;;;5092190;28;20074;-13
2023/01/05 08:41:22;;;;;;;41.30;25.83;;;7.20;86.40;;;;;;5092464;28;20020;-13
2023/01/05 08:43:52;;;;;;;35.55;23.52;;;7.30;86.30;;;;;;5092724;28;20013;-14
2023/01/05 08:46:20;;;;;;;44.53;27.58;;;7.40;86.00;;;;;;5092360;28;20064;-14
2023/01/05 08:48:54;;;;;;;42.03;26.55;;;7.50;85.40;;;;;;5092611;28;20050;-14
2023/01/05 08:51:20;;;;;;;41.63;26.55;;;7.70;85.10;;;;;;5092338;28;20173;-14
2023/01/05 08:53:47;;;;;;;39.60;25.20;;;7.80;85.20;;;;;;5092212;28;20104;-14
2023/01/05 08:56:13;;;;;;;42.72;27.25;;;7.90;85.20;;;;;;5092049;28;20016;-14
2023/01/05 08:58:40;;;;;;;37.38;24.40;;;8.00;85.30;;;;;;5092053;28;20467;-14
2023/01/05 09:01:11;;;;;;;42.20;26.70;;;8.20;85.00;;;;;;5091539;28;20514;-13
2023/01/05 09:03:37;;;;;;;39.55;24.92;;;8.30;85.10;;;;;;5090618;28;20119;-13
2023/01/05 09:06:10;;;;;;;45.40;27.40;;;8.40;85.00;;;;;;5092130;28;20116;-13
2023/01/05 09:08:46;;;;;;;42.13;26.83;;;8.60;84.70;;;;;;5094473;28;20499;-13
2023/01/05 09:11:16;;;;;;;40.33;26.50;;;8.70;84.50;;;;;;5095820;28;20031;-12
2023/01/05 09:13:49;;;;;;;42.45;26.27;;;8.80;84.00;;;;;;5095876;28;20028;-12
2023/01/05 09:16:17;;;;;;;46.03;30.67;;;8.70;83.80;;;;;;5095582;28;20051;-12
2023/01/05 09:18:44;;;;;;;44.03;27.90;;;8.80;83.70;;;;;;5095655;28;20042;-13
2023/01/05 09:21:12;;;;;;;42.42;25.63;;;8.70;83.60;;;;;;5093773;28;20068;-12
2023/01/05 09:23:38;;;;;;;32.22;20.98;;;8.70;83.60;;;;;;5095286;28;20029;-13
2023/01/05 09:26:09;;;;;;;52.35;29.60;;;8.70;83.70;;;;;;5095137;28;20081;-12
2023/01/05 09:28:35;;;;;;;38.30;23.80;;;8.80;83.90;;;;;;5095465;28;20031;-13
2023/01/05 09:31:09;;;;;;;44.35;26.67;;;8.90;84.10;;;;;;5094702;28;20048;-11
2023/01/05 09:33:35;;;;;;;39.78;25.50;;;8.90;84.00;;;;;;5094954;28;20039;-12
2023/01/05 09:36:01;;;;;;;33.25;22.50;;;9.00;83.80;;;;;;5095014;28;20028;-13
2023/01/05 09:38:27;;;;;;;38.45;24.27;;;9.10;83.70;;;;;;5094964;28;20032;-13
2023/01/05 09:40:56;;;;;;;41.08;25.55;;;9.20;83.80;;;;;;5095030;28;20065;-12
2023/01/05 09:43:30;;;;;;;35.63;23.15;;;9.20;83.80;;;;;;5095598;28;20024;-12
2023/01/05 09:45:56;;;;;;;30.40;19.83;;;9.40;83.70;;;;;;5094978;28;20475;-12
2023/01/05 09:48:24;;;;;;;40.55;25.50;;;9.50;83.50;;;;;;5094856;28;20016;-12
2023/01/05 09:50:51;;;;;;;42.50;26.90;;;9.60;83.50;;;;;;5094863;28;20027;-11
2023/01/05 09:53:24;;;;;;;33.75;21.60;;;9.70;83.10;;;;;;5094531;28;20519;-12
2023/01/05 09:55:51;;;;;;;38.67;24.75;;;9.70;83.00;;;;;;5095255;28;20043;-12
2023/01/05 09:58:25;;;;;;;38.60;23.65;;;9.80;83.10;;;;;;5094846;28;20028;-12
2023/01/05 10:01:07;;;;;;;42.47;26.70;;;9.90;82.80;;;;;;5095114;28;20039;-12
2023/01/05 10:03:38;;;;;;;39.85;25.25;;;9.90;82.50;;;;;;5095109;28;20077;-11
2023/01/05 10:06:11;;;;;;;39.10;24.50;;;9.90;82.30;;;;;;5094804;28;20027;-12
2023/01/05 10:08:48;;;;;;;44.72;26.05;;;9.90;82.20;;;;;;5094942;28;20054;-13
2023/01/05 10:14:06;;;;;;;39.83;23.35;;;9.90;82.40;;;;;;5094629;28;20055;-12
2023/01/05 10:16:32;;;;;;;38.25;23.60;;;9.90;82.50;;;;;;5094246;28;20117;-12
2023/01/05 10:19:00;;;;;;;39.45;23.63;;;10.10;82.30;;;;;;5092370;28;20036;-13
2023/01/05 10:21:42;;;;;;;34.35;21.67;;;10.20;82.30;;;;;;5094403;28;20052;-13
2023/01/05 10:24:20;;;;;;;37.00;22.80;;;10.30;82.10;;;;;;5094352;28;20028;-13
2023/01/05 10:27:15;;;;;;;36.85;23.17;;;10.40;82.00;;;;;;5094355;28;20032;-12
2023/01/05 10:29:47;;;;;;;35.50;21.60;;;10.50;81.70;;;;;;5093945;28;20017;-12
2023/01/05 10:32:25;;;;;;;40.40;23.67;;;10.60;81.30;;;;;;5093921;28;20028;-11
2023/01/05 10:35:09;;;;;;;35.47;22.35;;;10.70;81.20;;;;;;5094082;28;20060;-13
2023/01/05 10:38:20;;;;;;;32.15;20.48;;;10.80;81.00;;;;;;5094888;28;20069;-13
2023/01/05 10:41:10;;;;;;;37.10;22.75;;;10.80;80.70;;;;;;5065003;28;20055;-13
2023/01/05 10:43:57;;;;;;;36.67;22.85;;;10.90;80.70;;;;;;5093761;28;20529;-13
2023/01/05 10:46:23;;;;;;;31.58;20.35;;;10.90;80.60;;;;;;5093582;28;20123;-13
2023/01/05 10:48:49;;;;;;;36.75;22.88;;;11.00;80.10;;;;;;5093838;28;20020;-13
2023/01/05 10:51:15;;;;;;;38.95;23.10;;;11.00;80.30;;;;;;5093601;28;20135;-12
2023/01/05 10:53:42;;;;;;;39.28;24.50;;;11.10;80.40;;;;;;5093778;28;20028;-12
2023/01/05 10:56:09;;;;;;;39.35;23.92;;;11.20;79.80;;;;;;5093506;28;20511;-12
2023/01/05 10:58:40;;;;;;;39.10;23.42;;;11.30;80.00;;;;;;5093362;28;20033;-12
2023/01/05 11:01:29;;;;;;;42.63;24.25;;;11.30;80.00;;;;;;5093399;28;20123;-13
2023/01/05 11:04:04;;;;;;;36.13;23.77;;;11.30;79.70;;;;;;5093462;28;20371;-12
2023/01/05 11:06:33;;;;;;;34.47;20.92;;;11.30;79.60;;;;;;5093470;28;20028;-14
2023/01/05 11:09:19;;;;;;;33.15;21.33;;;11.20;79.80;;;;;;5093348;28;20567;-13
2023/01/05 11:12:04;;;;;;;32.63;20.45;;;11.30;79.80;;;;;;5093017;28;20456;-12
2023/01/05 11:14:35;;;;;;;35.15;20.25;;;11.40;80.10;;;;;;5093358;28;20097;-12
2023/01/05 11:17:04;;;;;;;32.58;19.38;;;11.60;80.00;;;;;;5092901;28;20410;-11
2023/01/05 11:19:36;;;;;;;35.90;22.83;;;11.80;79.70;;;;;;5093366;28;20360;-12
2023/01/05 11:22:02;;;;;;;34.08;21.50;;;11.90;79.10;;;;;;5093046;28;20031;-13
2023/01/05 11:24:36;;;;;;;37.08;22.60;;;12.10;79.00;;;;;;5093286;28;20016;-12
2023/01/05 11:27:23;;;;;;;38.33;22.25;;;12.20;78.50;;;;;;5092794;28;20052;-13
2023/01/05 11:30:14;;;;;;;38.35;21.77;;;12.20;77.80;;;;;;5091969;28;20067;-12
2023/01/05 11:32:42;;;;;;;33.80;19.90;;;12.20;77.50;;;;;;5092740;28;20392;-13
2023/01/05 11:35:37;;;;;;;32.22;19.85;;;12.20;77.90;;;;;;5092583;28;20038;-13
2023/01/05 11:38:03;;;;;;;37.40;22.88;;;12.20;77.70;;;;;;5030599;28;20033;-12
2023/01/05 11:40:33;;;;;;;36.45;21.67;;;12.20;77.50;;;;;;5030542;28;20100;-13
2023/01/05 11:42:59;;;;;;;35.22;21.77;;;12.20;77.60;;;;;;5030241;28;20042;-14
2023/01/05 11:45:31;;;;;;;32.15;19.40;;;12.20;77.40;;;;;;5030353;28;20095;-13
2023/01/05 11:48:07;;;;;;;33.53;20.95;;;12.20;77.60;;;;;;5030487;28;20029;-13
2023/01/05 11:50:50;;;;;;;39.20;23.48;;;12.30;77.50;;;;;;5030327;28;20434;-13
2023/01/05 11:53:36;;;;;;;37.27;22.07;;;12.40;77.20;;;;;;5030348;28;20448;-13
2023/01/05 11:56:04;;;;;;;37.47;22.77;;;12.40;76.80;;;;;;5030612;28;20124;-13
2023/01/05 11:58:44;;;;;;;35.53;21.48;;;12.40;76.90;;;;;;5030314;28;20045;-12
2023/01/05 12:01:48;;;;;;;36.20;22.50;;;12.40;76.80;;;;;;5029932;28;20033;-13
2023/01/05 12:04:44;;;;;;;33.38;20.23;;;12.40;76.90;;;;;;5030296;28;20033;-13
2023/01/05 12:07:37;;;;;;;34.83;19.80;;;12.40;76.70;;;;;;5030146;28;20508;-14
2023/01/05 12:10:11;;;;;;;31.75;18.90;;;12.60;77.00;;;;;;5026388;28;20038;-13
2023/01/05 12:12:58;;;;;;;33.17;19.70;;;12.90;76.70;;;;;;5030046;28;20068;-13
2023/01/05 12:15:46;;;;;;;34.58;20.77;;;13.10;76.10;;;;;;5086212;28;20032;-15
2023/01/05 12:18:39;;;;;;;39.08;23.35;;;13.20;74.80;;;;;;5091044;28;20071;-14
2023/01/05 12:21:26;;;;;;;35.28;19.17;;;13.30;75.10;;;;;;5092229;28;20047;-14
2023/01/05 12:24:01;;;;;;;38.08;21.58;;;13.20;74.90;;;;;;5092566;28;20103;-14
2023/01/05 12:27:16;;;;;;;34.25;18.92;;;13.20;75.20;;;;;;5093111;28;20024;-13
2023/01/05 12:29:45;;;;;;;34.70;19.63;;;13.30;75.20;;;;;;5092553;28;20028;-13
2023/01/05 12:32:38;;;;;;;33.47;20.17;;;13.30;74.90;;;;;;5092258;28;20064;-14
2023/01/05 12:35:22;;;;;;;40.15;23.02;;;13.40;74.30;;;;;;5092040;28;20042;-15
2023/01/05 12:38:11;;;;;;;36.08;21.05;;;13.50;73.00;;;;;;5092121;28;20024;-14
2023/01/05 12:41:08;;;;;;;33.92;20.52;;;13.50;73.20;;;;;;5092843;28;20031;-14
2023/01/05 12:43:54;;;;;;;35.20;21.02;;;13.50;72.50;;;;;;5096650;28;20471;-14
2023/01/05 12:46:46;;;;;;;31.95;19.20;;;13.50;72.20;;;;;;5095404;28;20396;-14
2023/01/05 12:49:26;;;;;;;33.50;20.02;;;13.60;72.50;;;;;;5096016;28;20032;-13
2023/01/05 12:52:11;;;;;;;39.75;22.85;;;13.50;72.50;;;;;;5096190;28;20047;-13
2023/01/05 12:54:55;;;;;;;36.45;19.80;;;13.40;70.20;;;;;;5094607;28;20024;-13
2023/01/05 12:57:33;;;;;;;37.47;20.52;;;13.30;71.90;;;;;;5096273;28;20016;-14
2023/01/05 13:00:16;;;;;;;39.97;23.77;;;13.20;72.10;;;;;;5095624;28;20020;-14
2023/01/05 13:03:03;;;;;;;34.90;19.73;;;13.10;72.00;;;;;;5095904;28;20066;-13
2023/01/05 13:05:29;;;;;;;32.75;20.33;;;13.00;73.00;;;;;;5095224;28;20044;-13
2023/01/05 13:08:16;;;;;;;33.40;20.48;;;13.10;72.80;;;;;;5095508;28;20032;-13
2023/01/05 13:10:53;;;;;;;38.40;21.48;;;13.00;72.90;;;;;;5095497;28;20039;-13
2023/01/05 13:13:26;;;;;;;37.58;21.63;;;13.10;72.20;;;;;;5096007;28;20085;-14
2023/01/05 13:16:16;;;;;;;38.72;22.33;;;13.00;72.70;;;;;;5095781;28;20048;-13
2023/01/05 13:18:52;;;;;;;40.20;24.27;;;13.00;73.00;;;;;;5095793;28;20099;-13
2023/01/05 13:21:22;;;;;;;35.85;20.63;;;12.90;73.10;;;;;;5095642;28;20024;-13
2023/01/05 13:23:54;;;;;;;38.05;22.65;;;12.80;73.30;;;;;;5094036;28;20098;-15
2023/01/05 13:26:21;;;;;;;31.25;18.77;;;12.70;72.70;;;;;;5095264;28;20028;-12
2023/01/05 13:28:50;;;;;;;29.05;18.13;;;12.70;73.50;;;;;;5094980;28;20031;-14
2023/01/05 13:31:33;;;;;;;37.72;22.15;;;12.70;73.90;;;;;;5094807;28;20132;-12